sensor_id;sensor_type;location;lat;lon;timestamp;P1;durP1;ratioP1;P2;durP2;ratioP2
36789;SDS011;22740;52.182;8.780;2024-03-22T00:04:41;28.05;;;16.50;;
36789;SDS011;22740;52.182;8.780;2024-03-22T00:10:42;29.77;;;17.25;;
36789;SDS011;22740;52.182;8.780;2024-03-22T00:16:43;29.83;;;17.42;;
36789;SDS011;22740;52.182;8.780;2024-03-22T00:22:44;28.00;;;17.02;;
36789;SDS011;22740;52.182;8.780;2024-03-22T00:28:45;32.67;;;17.67;;
36789;SDS011;22740;52.182;8.780;2024-03-22T00:34:45;32.28;;;18.45;;
36789;SDS011;22740;52.182;8.780;2024-03-22T00:40:46;35.17;;;18.65;;
36789;SDS011;22740;52.182;8.780;2024-03-22T00:46:47;35.03;;;18.80;;
36789;SDS011;22740;52.182;8.780;2024-03-22T00:52:50;34.33;;;19.88;;
36789;SDS011;22740;52.182;8.780;2024-03-22T00:58:51;31.60;;;17.73;;
36789;SDS011;22740;52.182;8.780;2024-03-22T01:04:52;34.03;;;19.27;;
36789;SDS011;22740;52.182;8.780;2024-03-22T01:10:53;37.65;;;21.02;;
36789;SDS011;22740;52.182;8.780;2024-03-22T01:16:54;37.08;;;19.98;;
36789;SDS011;22740;52.182;8.780;2024-03-22T01:22:56;37.97;;;19.77;;
36789;SDS011;22740;52.182;8.780;2024-03-22T01:28:57;43.10;;;20.17;;
36789;SDS011;22740;52.182;8.780;2024-03-22T01:34:58;39.47;;;19.75;;
36789;SDS011;22740;52.182;8.780;2024-03-22T01:40:58;39.50;;;21.25;;
36789;SDS011;22740;52.182;8.780;2024-03-22T01:46:59;38.75;;;19.98;;
36789;SDS011;22740;52.182;8.780;2024-03-22T01:53:01;36.10;;;19.85;;
36789;SDS011;22740;52.182;8.780;2024-03-22T01:59:02;36.33;;;20.17;;
36789;SDS011;22740;52.182;8.780;2024-03-22T02:05:17;39.45;;;20.52;;
36789;SDS011;22740;52.182;8.780;2024-03-22T02:11:21;40.55;;;20.77;;
36789;SDS011;22740;52.182;8.780;2024-03-22T02:17:23;43.35;;;20.80;;
36789;SDS011;22740;52.182;8.780;2024-03-22T02:23:31;41.13;;;21.02;;
36789;SDS011;22740;52.182;8.780;2024-03-22T02:29:35;37.40;;;19.70;;
36789;SDS011;22740;52.182;8.780;2024-03-22T02:35:36;40.85;;;20.30;;
36789;SDS011;22740;52.182;8.780;2024-03-22T02:41:37;39.83;;;19.77;;
36789;SDS011;22740;52.182;8.780;2024-03-22T02:47:38;40.15;;;19.90;;
36789;SDS011;22740;52.182;8.780;2024-03-22T02:53:39;40.55;;;19.92;;
36789;SDS011;22740;52.182;8.780;2024-03-22T02:59:40;38.78;;;20.88;;
36789;SDS011;22740;52.182;8.780;2024-03-22T03:05:41;40.80;;;20.60;;
36789;SDS011;22740;52.182;8.780;2024-03-22T03:11:42;36.60;;;19.73;;
36789;SDS011;22740;52.182;8.780;2024-03-22T03:17:43;41.83;;;20.05;;
36789;SDS011;22740;52.182;8.780;2024-03-22T03:23:44;41.25;;;20.77;;
36789;SDS011;22740;52.182;8.780;2024-03-22T03:29:45;41.50;;;21.58;;
36789;SDS011;22740;52.182;8.780;2024-03-22T03:35:46;40.08;;;20.90;;
36789;SDS011;22740;52.182;8.780;2024-03-22T03:41:47;38.85;;;18.67;;
36789;SDS011;22740;52.182;8.780;2024-03-22T03:47:48;42.90;;;21.33;;
36789;SDS011;22740;52.182;8.780;2024-03-22T03:53:49;46.97;;;21.17;;
36789;SDS011;22740;52.182;8.780;2024-03-22T03:59:50;39.88;;;19.20;;
36789;SDS011;22740;52.182;8.780;2024-03-22T04:05:57;37.78;;;19.30;;
36789;SDS011;22740;52.182;8.780;2024-03-22T04:11:59;45.10;;;21.48;;
36789;SDS011;22740;52.182;8.780;2024-03-22T04:18:00;39.92;;;20.15;;
36789;SDS011;22740;52.182;8.780;2024-03-22T04:24:01;41.60;;;20.80;;
36789;SDS011;22740;52.182;8.780;2024-03-22T04:30:02;41.17;;;19.80;;
36789;SDS011;22740;52.182;8.780;2024-03-22T04:36:03;41.08;;;19.50;;
36789;SDS011;22740;52.182;8.780;2024-03-22T04:42:04;40.83;;;19.92;;
36789;SDS011;22740;52.182;8.780;2024-03-22T04:48:05;40.55;;;18.92;;
36789;SDS011;22740;52.182;8.780;2024-03-22T04:54:06;40.60;;;19.52;;
36789;SDS011;22740;52.182;8.780;2024-03-22T05:00:07;43.58;;;18.73;;
36789;SDS011;22740;52.182;8.780;2024-03-22T05:06:09;35.28;;;17.63;;
36789;SDS011;22740;52.182;8.780;2024-03-22T05:12:10;36.10;;;17.73;;
36789;SDS011;22740;52.182;8.780;2024-03-22T05:18:11;40.25;;;18.30;;
36789;SDS011;22740;52.182;8.780;2024-03-22T05:24:12;37.42;;;17.77;;
36789;SDS011;22740;52.182;8.780;2024-03-22T05:30:13;38.63;;;18.08;;
36789;SDS011;22740;52.182;8.780;2024-03-22T05:36:14;39.42;;;17.48;;
36789;SDS011;22740;52.182;8.780;2024-03-22T05:42:15;39.22;;;17.83;;
36789;SDS011;22740;52.182;8.780;2024-03-22T05:48:16;39.10;;;17.35;;
36789;SDS011;22740;52.182;8.780;2024-03-22T05:54:17;33.38;;;17.23;;
36789;SDS011;22740;52.182;8.780;2024-03-22T06:00:18;36.50;;;16.90;;
36789;SDS011;22740;52.182;8.780;2024-03-22T06:06:19;37.20;;;17.50;;
36789;SDS011;22740;52.182;8.780;2024-03-22T06:12:25;33.45;;;16.95;;
36789;SDS011;22740;52.182;8.780;2024-03-22T06:18:26;34.78;;;17.08;;
36789;SDS011;22740;52.182;8.780;2024-03-22T06:24:26;35.88;;;16.75;;
36789;SDS011;22740;52.182;8.780;2024-03-22T06:30:27;38.38;;;16.83;;
36789;SDS011;22740;52.182;8.780;2024-03-22T06:36:30;31.20;;;15.23;;
36789;SDS011;22740;52.182;8.780;2024-03-22T06:42:32;30.43;;;16.77;;
36789;SDS011;22740;52.182;8.780;2024-03-22T06:48:33;30.80;;;15.65;;
36789;SDS011;22740;52.182;8.780;2024-03-22T06:54:34;32.67;;;15.57;;
36789;SDS011;22740;52.182;8.780;2024-03-22T07:00:35;29.50;;;15.70;;
36789;SDS011;22740;52.182;8.780;2024-03-22T07:06:36;30.83;;;15.65;;
36789;SDS011;22740;52.182;8.780;2024-03-22T07:12:37;29.73;;;15.32;;
36789;SDS011;22740;52.182;8.780;2024-03-22T07:18:38;26.20;;;14.15;;
36789;SDS011;22740;52.182;8.780;2024-03-22T07:24:39;29.15;;;15.93;;
36789;SDS011;22740;52.182;8.780;2024-03-22T07:30:40;26.77;;;14.90;;
36789;SDS011;22740;52.182;8.780;2024-03-22T07:36:42;28.58;;;14.90;;
36789;SDS011;22740;52.182;8.780;2024-03-22T07:42:43;26.05;;;15.00;;
36789;SDS011;22740;52.182;8.780;2024-03-22T07:48:44;25.60;;;15.07;;
36789;SDS011;22740;52.182;8.780;2024-03-22T07:54:45;30.50;;;16.40;;
36789;SDS011;22740;52.182;8.780;2024-03-22T08:00:46;24.83;;;14.85;;
36789;SDS011;22740;52.182;8.780;2024-03-22T08:06:47;25.48;;;14.88;;
36789;SDS011;22740;52.182;8.780;2024-03-22T08:12:50;23.95;;;14.48;;
36789;SDS011;22740;52.182;8.780;2024-03-22T08:18:53;24.23;;;14.38;;
36789;SDS011;22740;52.182;8.780;2024-03-22T08:24:54;21.33;;;14.25;;
36789;SDS011;22740;52.182;8.780;2024-03-22T08:30:56;22.52;;;15.25;;
36789;SDS011;22740;52.182;8.780;2024-03-22T08:36:57;24.95;;;16.42;;
36789;SDS011;22740;52.182;8.780;2024-03-22T08:42:59;23.48;;;16.48;;
36789;SDS011;22740;52.182;8.780;2024-03-22T08:48:59;26.90;;;17.75;;
36789;SDS011;22740;52.182;8.780;2024-03-22T08:55:01;29.67;;;18.20;;
36789;SDS011;22740;52.182;8.780;2024-03-22T09:01:02;26.90;;;18.42;;
36789;SDS011;22740;52.182;8.780;2024-03-22T09:07:03;23.15;;;17.48;;
36789;SDS011;22740;52.182;8.780;2024-03-22T09:13:04;26.15;;;18.52;;
36789;SDS011;22740;52.182;8.780;2024-03-22T09:19:05;25.55;;;17.40;;
36789;SDS011;22740;52.182;8.780;2024-03-22T09:25:06;25.42;;;16.83;;
36789;SDS011;22740;52.182;8.780;2024-03-22T09:31:08;21.83;;;15.30;;
36789;SDS011;22740;52.182;8.780;2024-03-22T09:37:09;27.25;;;16.52;;
36789;SDS011;22740;52.182;8.780;2024-03-22T09:43:10;24.25;;;16.35;;
36789;SDS011;22740;52.182;8.780;2024-03-22T09:49:18;25.15;;;15.90;;
36789;SDS011;22740;52.182;8.780;2024-03-22T09:55:23;23.08;;;14.80;;
36789;SDS011;22740;52.182;8.780;2024-03-22T10:01:24;25.90;;;15.38;;
36789;SDS011;22740;52.182;8.780;2024-03-22T10:07:25;22.30;;;14.13;;
36789;SDS011;22740;52.182;8.780;2024-03-22T10:13:26;24.50;;;14.43;;
36789;SDS011;22740;52.182;8.780;2024-03-22T10:19:27;23.92;;;15.60;;
36789;SDS011;22740;52.182;8.780;2024-03-22T10:25:28;22.55;;;12.98;;
36789;SDS011;22740;52.182;8.780;2024-03-22T10:31:29;18.95;;;12.80;;
36789;SDS011;22740;52.182;8.780;2024-03-22T10:37:31;20.40;;;12.70;;
36789;SDS011;22740;52.182;8.780;2024-03-22T10:43:34;20.25;;;13.25;;
36789;SDS011;22740;52.182;8.780;2024-03-22T10:49:36;21.77;;;13.40;;
36789;SDS011;22740;52.182;8.780;2024-03-22T10:55:38;21.35;;;14.63;;
36789;SDS011;22740;52.182;8.780;2024-03-22T11:01:45;17.45;;;12.52;;
36789;SDS011;22740;52.182;8.780;2024-03-22T11:07:47;18.65;;;11.70;;
36789;SDS011;22740;52.182;8.780;2024-03-22T11:13:48;19.15;;;12.77;;
36789;SDS011;22740;52.182;8.780;2024-03-22T11:19:49;21.38;;;12.27;;
36789;SDS011;22740;52.182;8.780;2024-03-22T11:25:50;20.05;;;12.05;;
36789;SDS011;22740;52.182;8.780;2024-03-22T11:31:51;20.60;;;12.75;;
36789;SDS011;22740;52.182;8.780;2024-03-22T11:37:52;20.85;;;11.55;;
36789;SDS011;22740;52.182;8.780;2024-03-22T11:43:53;19.65;;;11.25;;
36789;SDS011;22740;52.182;8.780;2024-03-22T11:49:55;17.20;;;11.02;;
36789;SDS011;22740;52.182;8.780;2024-03-22T11:55:57;21.55;;;12.80;;
36789;SDS011;22740;52.182;8.780;2024-03-22T12:01:58;18.60;;;11.95;;
36789;SDS011;22740;52.182;8.780;2024-03-22T12:08:00;21.42;;;12.55;;
36789;SDS011;22740;52.182;8.780;2024-03-22T12:14:01;21.00;;;12.80;;
36789;SDS011;22740;52.182;8.780;2024-03-22T12:20:02;22.27;;;12.55;;
36789;SDS011;22740;52.182;8.780;2024-03-22T12:26:04;22.95;;;13.68;;
36789;SDS011;22740;52.182;8.780;2024-03-22T12:32:05;22.73;;;13.50;;
36789;SDS011;22740;52.182;8.780;2024-03-22T12:38:07;20.20;;;13.32;;
36789;SDS011;22740;52.182;8.780;2024-03-22T12:44:14;20.77;;;12.70;;
36789;SDS011;22740;52.182;8.780;2024-03-22T12:50:15;22.83;;;13.43;;
36789;SDS011;22740;52.182;8.780;2024-03-22T12:56:16;20.73;;;13.00;;
36789;SDS011;22740;52.182;8.780;2024-03-22T13:02:17;21.75;;;14.20;;
36789;SDS011;22740;52.182;8.780;2024-03-22T13:08:17;22.65;;;13.98;;
36789;SDS011;22740;52.182;8.780;2024-03-22T13:14:19;22.30;;;13.73;;
36789;SDS011;22740;52.182;8.780;2024-03-22T13:20:20;23.83;;;14.68;;
36789;SDS011;22740;52.182;8.780;2024-03-22T13:26:21;22.65;;;14.55;;
36789;SDS011;22740;52.182;8.780;2024-03-22T13:32:22;22.75;;;14.30;;
36789;SDS011;22740;52.182;8.780;2024-03-22T13:38:23;23.52;;;14.90;;
36789;SDS011;22740;52.182;8.780;2024-03-22T13:44:24;22.55;;;14.05;;
36789;SDS011;22740;52.182;8.780;2024-03-22T13:50:26;21.38;;;14.07;;
36789;SDS011;22740;52.182;8.780;2024-03-22T13:56:27;20.95;;;13.10;;
36789;SDS011;22740;52.182;8.780;2024-03-22T14:02:28;20.30;;;13.00;;
36789;SDS011;22740;52.182;8.780;2024-03-22T14:08:31;23.83;;;13.88;;
36789;SDS011;22740;52.182;8.780;2024-03-22T14:14:32;22.17;;;13.55;;
36789;SDS011;22740;52.182;8.780;2024-03-22T14:20:33;19.48;;;12.52;;
36789;SDS011;22740;52.182;8.780;2024-03-22T14:26:34;21.48;;;11.75;;
36789;SDS011;22740;52.182;8.780;2024-03-22T14:32:42;19.70;;;11.23;;
36789;SDS011;22740;52.182;8.780;2024-03-22T14:38:43;18.25;;;11.57;;
36789;SDS011;22740;52.182;8.780;2024-03-22T14:44:44;19.42;;;11.32;;
36789;SDS011;22740;52.182;8.780;2024-03-22T14:50:46;18.88;;;12.23;;
36789;SDS011;22740;52.182;8.780;2024-03-22T14:56:47;20.50;;;13.13;;
36789;SDS011;22740;52.182;8.780;2024-03-22T15:02:48;18.83;;;12.32;;
36789;SDS011;22740;52.182;8.780;2024-03-22T15:08:49;20.40;;;12.93;;
36789;SDS011;22740;52.182;8.780;2024-03-22T15:14:53;20.85;;;12.10;;
36789;SDS011;22740;52.182;8.780;2024-03-22T15:20:54;18.65;;;12.40;;
36789;SDS011;22740;52.182;8.780;2024-03-22T15:26:55;20.77;;;12.02;;
36789;SDS011;22740;52.182;8.780;2024-03-22T15:32:55;21.05;;;12.55;;
36789;SDS011;22740;52.182;8.780;2024-03-22T15:38:56;22.08;;;13.60;;
36789;SDS011;22740;52.182;8.780;2024-03-22T15:44:57;19.15;;;12.60;;
36789;SDS011;22740;52.182;8.780;2024-03-22T15:51:03;17.98;;;12.05;;
36789;SDS011;22740;52.182;8.780;2024-03-22T15:57:04;17.85;;;11.90;;
36789;SDS011;22740;52.182;8.780;2024-03-22T16:03:05;20.58;;;12.20;;
36789;SDS011;22740;52.182;8.780;2024-03-22T16:09:07;20.02;;;13.13;;
36789;SDS011;22740;52.182;8.780;2024-03-22T16:15:11;19.40;;;12.45;;
36789;SDS011;22740;52.182;8.780;2024-03-22T16:21:12;17.08;;;10.52;;
36789;SDS011;22740;52.182;8.780;2024-03-22T16:27:13;16.38;;;10.80;;
36789;SDS011;22740;52.182;8.780;2024-03-22T16:33:14;17.13;;;10.43;;
36789;SDS011;22740;52.182;8.780;2024-03-22T16:39:15;17.08;;;10.43;;
36789;SDS011;22740;52.182;8.780;2024-03-22T16:45:17;15.80;;;10.10;;
36789;SDS011;22740;52.182;8.780;2024-03-22T16:51:21;17.25;;;9.90;;
36789;SDS011;22740;52.182;8.780;2024-03-22T16:57:22;16.77;;;10.32;;
36789;SDS011;22740;52.182;8.780;2024-03-22T17:03:22;17.42;;;10.32;;
36789;SDS011;22740;52.182;8.780;2024-03-22T17:09:23;15.32;;;9.55;;
36789;SDS011;22740;52.182;8.780;2024-03-22T17:15:25;13.43;;;8.82;;
36789;SDS011;22740;52.182;8.780;2024-03-22T17:21:26;18.38;;;8.95;;
36789;SDS011;22740;52.182;8.780;2024-03-22T17:27:27;13.90;;;9.55;;
36789;SDS011;22740;52.182;8.780;2024-03-22T17:33:28;14.00;;;8.70;;
36789;SDS011;22740;52.182;8.780;2024-03-22T17:39:29;11.75;;;8.15;;
36789;SDS011;22740;52.182;8.780;2024-03-22T17:45:31;13.98;;;8.20;;
36789;SDS011;22740;52.182;8.780;2024-03-22T17:51:32;5.13;;;4.13;;
36789;SDS011;22740;52.182;8.780;2024-03-22T17:57:33;6.30;;;3.50;;
36789;SDS011;22740;52.182;8.780;2024-03-22T18:03:34;4.63;;;3.60;;
36789;SDS011;22740;52.182;8.780;2024-03-22T18:09:35;5.97;;;3.80;;
36789;SDS011;22740;52.182;8.780;2024-03-22T18:15:40;6.65;;;4.10;;
36789;SDS011;22740;52.182;8.780;2024-03-22T18:21:41;11.98;;;8.20;;
36789;SDS011;22740;52.182;8.780;2024-03-22T18:27:42;6.30;;;4.18;;
36789;SDS011;22740;52.182;8.780;2024-03-22T18:33:43;6.35;;;3.65;;
36789;SDS011;22740;52.182;8.780;2024-03-22T18:39:44;5.65;;;3.65;;
36789;SDS011;22740;52.182;8.780;2024-03-22T18:45:46;10.15;;;3.90;;
36789;SDS011;22740;52.182;8.780;2024-03-22T18:51:47;7.50;;;3.45;;
36789;SDS011;22740;52.182;8.780;2024-03-22T18:57:48;9.38;;;3.90;;
36789;SDS011;22740;52.182;8.780;2024-03-22T19:03:49;11.48;;;4.15;;
36789;SDS011;22740;52.182;8.780;2024-03-22T19:09:50;11.38;;;3.72;;
36789;SDS011;22740;52.182;8.780;2024-03-22T19:15:54;7.70;;;4.07;;
36789;SDS011;22740;52.182;8.780;2024-03-22T19:21:56;10.57;;;4.13;;
36789;SDS011;22740;52.182;8.780;2024-03-22T19:27:57;11.55;;;4.68;;
36789;SDS011;22740;52.182;8.780;2024-03-22T19:33:58;16.35;;;4.28;;
36789;SDS011;22740;52.182;8.780;2024-03-22T19:39:59;10.90;;;4.68;;
36789;SDS011;22740;52.182;8.780;2024-03-22T19:46:00;12.00;;;5.22;;
36789;SDS011;22740;52.182;8.780;2024-03-22T19:52:02;10.75;;;4.88;;
36789;SDS011;22740;52.182;8.780;2024-03-22T19:58:05;10.77;;;5.33;;
36789;SDS011;22740;52.182;8.780;2024-03-22T20:04:06;10.77;;;4.50;;
36789;SDS011;22740;52.182;8.780;2024-03-22T20:10:07;12.02;;;4.72;;
36789;SDS011;22740;52.182;8.780;2024-03-22T20:16:09;9.85;;;4.10;;
36789;SDS011;22740;52.182;8.780;2024-03-22T20:22:09;11.43;;;4.82;;
36789;SDS011;22740;52.182;8.780;2024-03-22T20:28:10;10.30;;;4.90;;
36789;SDS011;22740;52.182;8.780;2024-03-22T20:34:11;12.48;;;5.50;;
